Time;durP1;ratioP1;P1;durP2;ratioP2;P2;SDS_P1;SDS_P2;PMS_P1;PMS_P2;Temp;Humidity;BMP_temperature;BMP_pressure;BME280_temperature;BME280_humidity;BME280_pressure;Samples;Min_cycle;Max_cycle;Signal;HPM_P1;HPM_P2
2023/10/08 00:01:03;;;;;;;27.25;7.18;;;;;;;;;;5067633;28;20213;-73
2023/10/08 00:03:29;;;;;;;28.13;8.40;;;;;;;;;;5077422;28;20224;-74
2023/10/08 00:05:55;;;;;;;26.80;8.02;;;;;;;;;;5079369;28;20188;-73
2023/10/08 00:08:21;;;;;;;29.92;7.88;;;;;;;;;;5087968;28;20191;-74
2023/10/08 00:10:47;;;;;;;32.17;8.63;;;;;;;;;;5072482;28;20686;-73
2023/10/08 00:13:15;;;;;;;28.52;8.27;;;;;;;;;;5097648;28;20193;-74
2023/10/08 00:15:49;;;;;;;28.05;7.82;;;;;;;;;;5073703;28;20190;-74
2023/10/08 00:18:15;;;;;;;25.23;8.18;;;;;;;;;;5080150;28;20574;-74
2023/10/08 00:20:54;;;;;;;23.98;7.97;;;;;;;;;;5079393;28;20181;-73
2023/10/08 00:23:25;;;;;;;22.70;7.97;;;;;;;;;;5077422;28;20619;-72
2023/10/08 00:25:52;;;;;;;28.17;8.13;;;;;;;;;;5081724;28;20530;-74
2023/10/08 00:28:17;;;;;;;30.35;8.40;;;;;;;;;;5091936;28;20215;-73
2023/10/08 00:30:43;;;;;;;27.95;7.95;;;;;;;;;;5089820;28;20254;-74
2023/10/08 00:33:11;;;;;;;24.23;7.72;;;;;;;;;;5081736;28;20192;-74
2023/10/08 00:35:41;;;;;;;38.05;8.63;;;;;;;;;;5092279;28;20180;-73
2023/10/08 00:38:20;;;;;;;29.33;8.25;;;;;;;;;;5080498;28;20308;-72
2023/10/08 00:40:48;;;;;;;28.40;8.55;;;;;;;;;;5088554;28;20328;-74
2023/10/08 00:43:35;;;;;;;28.23;7.85;;;;;;;;;;5096714;28;20184;-74
2023/10/08 00:46:18;;;;;;;27.23;7.97;;;;;;;;;;5076270;28;20184;-73
2023/10/08 00:48:45;;;;;;;29.63;8.88;;;;;;;;;;5089381;28;20194;-74
2023/10/08 00:51:26;;;;;;;33.83;9.48;;;;;;;;;;5071481;28;20618;-73
2023/10/08 00:53:59;;;;;;;25.85;8.25;;;;;;;;;;5066713;28;20686;-73
2023/10/08 00:56:46;;;;;;;26.70;8.70;;;;;;;;;;5083591;28;20678;-73
2023/10/08 00:59:15;;;;;;;32.25;8.32;;;;;;;;;;5074199;28;20275;-74
2023/10/08 01:01:45;;;;;;;32.42;8.50;;;;;;;;;;5078206;28;20262;-74
2023/10/08 01:04:16;;;;;;;25.05;8.75;;;;;;;;;;5084981;28;20242;-73
2023/10/08 01:06:41;;;;;;;24.95;8.52;;;;;;;;;;5070982;28;20472;-73
2023/10/08 01:09:31;;;;;;;31.30;10.77;;;;;;;;;;5071232;28;20662;-74
2023/10/08 01:12:09;;;;;;;26.35;9.57;;;;;;;;;;5082440;28;20221;-74
2023/10/08 01:14:35;;;;;;;26.98;10.55;;;;;;;;;;5070487;28;20303;-73
2023/10/08 01:17:00;;;;;;;24.75;10.00;;;;;;;;;;5074367;28;20274;-73
2023/10/08 01:19:27;;;;;;;24.83;10.98;;;;;;;;;;5091897;28;20257;-73
2023/10/08 01:21:52;;;;;;;13.38;6.57;;;;;;;;;;5062835;28;20280;-72
2023/10/08 01:24:19;;;;;;;9.23;5.70;;;;;;;;;;5087307;28;20279;-74
2023/10/08 01:26:45;;;;;;;5.35;4.82;;;;;;;;;;5078762;28;20654;-74
2023/10/08 01:29:19;;;;;;;6.53;4.68;;;;;;;;;;5078261;28;20352;-72
2023/10/08 01:31:46;;;;;;;6.70;4.40;;;;;;;;;;5100796;28;20211;-74
2023/10/08 01:34:16;;;;;;;5.35;3.50;;;;;;;;;;5102680;28;20226;-73
2023/10/08 01:36:44;;;;;;;4.43;3.10;;;;;;;;;;5083600;28;20204;-72
2023/10/08 01:39:15;;;;;;;4.05;3.38;;;;;;;;;;5088411;28;20257;-73
2023/10/08 01:41:43;;;;;;;3.33;2.47;;;;;;;;;;5042231;28;20184;-74
2023/10/08 01:44:08;;;;;;;4.32;2.72;;;;;;;;;;5080841;28;20184;-73
2023/10/08 01:46:34;;;;;;;4.05;2.92;;;;;;;;;;5079152;28;20650;-73
2023/10/08 01:49:04;;;;;;;4.32;2.70;;;;;;;;;;5073955;28;20184;-73
2023/10/08 01:51:37;;;;;;;3.70;2.70;;;;;;;;;;5083712;28;20286;-73
2023/10/08 01:54:09;;;;;;;6.45;3.67;;;;;;;;;;5084860;28;20558;-74
2023/10/08 01:56:42;;;;;;;5.57;3.20;;;;;;;;;;5083760;28;20190;-74
2023/10/08 01:59:16;;;;;;;3.45;2.85;;;;;;;;;;5079079;28;20195;-74
2023/10/08 02:01:43;;;;;;;3.95;3.00;;;;;;;;;;5101931;28;20613;-74
2023/10/08 02:04:12;;;;;;;5.63;3.17;;;;;;;;;;5074876;28;20239;-73
2023/10/08 02:06:39;;;;;;;4.68;2.90;;;;;;;;;;5064562;28;20212;-74
2023/10/08 02:09:09;;;;;;;4.45;3.17;;;;;;;;;;5096066;28;20218;-74
2023/10/08 02:11:53;;;;;;;5.25;2.78;;;;;;;;;;5056728;28;20330;-73
2023/10/08 02:14:22;;;;;;;4.82;2.65;;;;;;;;;;5061131;28;20264;-73
2023/10/08 02:16:48;;;;;;;6.85;2.63;;;;;;;;;;5067050;28;20195;-74
2023/10/08 02:19:18;;;;;;;7.07;2.75;;;;;;;;;;5090374;28;20243;-74
2023/10/08 02:21:46;;;;;;;3.92;2.17;;;;;;;;;;5078291;28;20183;-74
2023/10/08 02:24:12;;;;;;;5.68;2.50;;;;;;;;;;5081822;28;20643;-73
2023/10/08 02:26:38;;;;;;;4.72;2.45;;;;;;;;;;5077320;28;20184;-72
2023/10/08 02:29:10;;;;;;;6.07;2.42;;;;;;;;;;5075229;28;20211;-72
2023/10/08 02:31:39;;;;;;;4.30;2.67;;;;;;;;;;5092652;28;20573;-72
2023/10/08 02:34:08;;;;;;;5.13;2.53;;;;;;;;;;5086870;28;20292;-72
2023/10/08 02:36:36;;;;;;;3.95;2.55;;;;;;;;;;5099448;28;20187;-72
2023/10/08 02:39:14;;;;;;;6.20;3.30;;;;;;;;;;5091706;28;20514;-73
2023/10/08 02:41:45;;;;;;;8.65;2.28;;;;;;;;;;5071821;28;20189;-73
2023/10/08 02:44:13;;;;;;;5.97;3.08;;;;;;;;;;5084125;28;20216;-73
2023/10/08 02:46:49;;;;;;;6.60;2.47;;;;;;;;;;5067479;28;20211;-73
2023/10/08 02:49:20;;;;;;;3.65;2.80;;;;;;;;;;5087683;28;20196;-73
2023/10/08 02:51:54;;;;;;;2.90;2.60;;;;;;;;;;5086020;28;20670;-73
2023/10/08 02:54:23;;;;;;;7.03;3.00;;;;;;;;;;5075494;28;20187;-73
2023/10/08 02:56:57;;;;;;;4.05;2.45;;;;;;;;;;5078385;28;20295;-73
2023/10/08 02:59:24;;;;;;;5.95;2.92;;;;;;;;;;5082017;28;20187;-73
2023/10/08 03:01:55;;;;;;;4.55;2.88;;;;;;;;;;5078016;28;20292;-73
2023/10/08 03:04:22;;;;;;;6.53;3.08;;;;;;;;;;5063719;28;20268;-73
2023/10/08 03:06:50;;;;;;;7.45;3.28;;;;;;;;;;5054491;28;20300;-73
2023/10/08 03:09:31;;;;;;;6.75;3.58;;;;;;;;;;5070861;28;20204;-72
2023/10/08 03:11:58;;;;;;;7.85;3.33;;;;;;;;;;5051361;28;20567;-72
2023/10/08 03:14:26;;;;;;;6.03;3.08;;;;;;;;;;5068509;28;20181;-72
2023/10/08 03:16:53;;;;;;;9.25;3.45;;;;;;;;;;5066052;28;20200;-73
2023/10/08 03:19:19;;;;;;;4.20;3.20;;;;;;;;;;5073209;28;20189;-73
2023/10/08 03:21:56;;;;;;;4.60;3.20;;;;;;;;;;5071909;28;20282;-73
2023/10/08 03:24:37;;;;;;;6.32;3.40;;;;;;;;;;5071591;28;20243;-73
2023/10/08 03:27:07;;;;;;;6.35;3.53;;;;;;;;;;5071552;28;20268;-73
2023/10/08 03:29:41;;;;;;;4.18;3.13;;;;;;;;;;5067574;28;20194;-73
2023/10/08 03:32:15;;;;;;;4.60;3.70;;;;;;;;;;5075517;28;20652;-73
2023/10/08 03:34:49;;;;;;;3.90;3.50;;;;;;;;;;5070873;28;20539;-73
2023/10/08 03:37:29;;;;;;;5.32;3.80;;;;;;;;;;5070268;28;20189;-73
2023/10/08 03:40:01;;;;;;;6.15;4.07;;;;;;;;;;5069722;28;20249;-74
2023/10/08 03:42:33;;;;;;;4.18;3.70;;;;;;;;;;5064016;28;20271;-74
2023/10/08 03:45:09;;;;;;;5.38;4.22;;;;;;;;;;5068783;28;21066;-73
2023/10/08 03:47:37;;;;;;;5.45;3.70;;;;;;;;;;5062242;28;20181;-72
2023/10/08 03:50:06;;;;;;;6.78;3.90;;;;;;;;;;5075595;28;20213;-73
2023/10/08 03:52:36;;;;;;;5.20;3.40;;;;;;;;;;5080544;28;20192;-73
2023/10/08 03:55:21;;;;;;;5.53;4.20;;;;;;;;;;5063472;28;20335;-72
2023/10/08 03:57:56;;;;;;;6.45;3.78;;;;;;;;;;5062980;28;20220;-72
2023/10/08 04:00:28;;;;;;;7.22;4.10;;;;;;;;;;5056235;28;20188;-73
2023/10/08 04:02:55;;;;;;;5.32;3.90;;;;;;;;;;5071818;28;20209;-73
2023/10/08 04:05:27;;;;;;;6.20;4.38;;;;;;;;;;5087713;28;20188;-73
2023/10/08 04:13:01;;;;;;;4.38;3.50;;;;;;;;;;5074329;28;20205;-73
2023/10/08 04:15:27;;;;;;;5.18;3.60;;;;;;;;;;5084349;28;20495;-73
2023/10/08 04:17:52;;;;;;;4.30;3.75;;;;;;;;;;5058438;28;20223;-73
2023/10/08 04:20:33;;;;;;;4.47;3.78;;;;;;;;;;5082682;28;20255;-73
2023/10/08 04:23:04;;;;;;;3.90;3.35;;;;;;;;;;5072438;28;20180;-73
2023/10/08 04:25:31;;;;;;;5.03;3.85;;;;;;;;;;5083983;28;20202;-73
2023/10/08 04:27:58;;;;;;;3.97;3.35;;;;;;;;;;5090343;28;20670;-73
2023/10/08 04:30:32;;;;;;;3.83;3.42;;;;;;;;;;5090881;28;20242;-73
2023/10/08 04:33:07;;;;;;;3.88;3.50;;;;;;;;;;5088036;28;20645;-73
2023/10/08 04:35:37;;;;;;;4.03;3.42;;;;;;;;;;5071777;28;20186;-73
2023/10/08 04:38:08;;;;;;;5.60;3.38;;;;;;;;;;5085372;28;20214;-73
2023/10/08 04:40:41;;;;;;;4.97;3.45;;;;;;;;;;5082663;28;20181;-73
2023/10/08 04:43:10;;;;;;;5.03;3.38;;;;;;;;;;5085448;28;20186;-73
2023/10/08 04:45:37;;;;;;;5.47;3.42;;;;;;;;;;5034228;28;20185;-73
2023/10/08 04:48:06;;;;;;;5.80;3.80;;;;;;;;;;5074845;28;20632;-73
2023/10/08 04:50:32;;;;;;;3.88;3.47;;;;;;;;;;5069719;28;20211;-73
2023/10/08 04:53:01;;;;;;;4.50;3.58;;;;;;;;;;5069600;28;20188;-73
2023/10/08 04:55:29;;;;;;;8.23;4.07;;;;;;;;;;5084073;28;20249;-73
2023/10/08 04:57:55;;;;;;;6.75;3.85;;;;;;;;;;5068479;28;20697;-73
2023/10/08 05:00:41;;;;;;;6.22;4.22;;;;;;;;;;5086384;28;20688;-73
2023/10/08 05:03:16;;;;;;;4.97;4.25;;;;;;;;;;5083435;28;20228;-73
2023/10/08 05:08:32;;;;;;;5.10;4.35;;;;;;;;;;5057993;28;20194;-73
2023/10/08 05:11:15;;;;;;;7.50;4.50;;;;;;;;;;5061316;28;20231;-73
2023/10/08 05:13:55;;;;;;;6.00;4.57;;;;;;;;;;5048412;28;20202;-73
2023/10/08 05:16:36;;;;;;;9.90;4.78;;;;;;;;;;5089478;28;20183;-73
2023/10/08 05:19:24;;;;;;;7.75;4.95;;;;;;;;;;5071677;28;20199;-73
2023/10/08 05:22:05;;;;;;;6.32;4.60;;;;;;;;;;5054448;28;20195;-73
2023/10/08 05:24:37;;;;;;;5.63;4.45;;;;;;;;;;5074782;28;20611;-74
2023/10/08 05:27:37;;;;;;;6.93;5.00;;;;;;;;;;5067439;28;20503;-73
2023/10/08 05:32:38;;;;;;;8.43;5.45;;;;;;;;;;5079293;28;20708;-73
2023/10/08 05:38:02;;;;;;;9.05;5.47;;;;;;;;;;5082804;28;20253;-73
2023/10/08 05:43:33;;;;;;;10.38;6.28;;;;;;;;;;5097479;28;20286;-73
2023/10/08 05:46:35;;;;;;;10.00;6.30;;;;;;;;;;5098096;28;20213;-73
2023/10/08 05:48:45;;;;;;;11.43;7.10;;;;;;;;;;5086953;28;20288;-73
2023/10/08 05:51:23;;;;;;;9.75;6.40;;;;;;;;;;5068865;28;20295;-73
2023/10/08 05:53:49;;;;;;;10.75;5.97;;;;;;;;;;5092611;28;20580;-73
2023/10/08 05:56:28;;;;;;;11.88;6.43;;;;;;;;;;5078683;28;20279;-73
2023/10/08 06:01:41;;;;;;;8.25;5.47;;;;;;;;;;5076787;28;20731;-73
2023/10/08 06:04:42;;;;;;;9.45;6.00;;;;;;;;;;5079445;28;20467;-73
2023/10/08 06:07:20;;;;;;;9.80;5.43;;;;;;;;;;5075931;28;20208;-73
2023/10/08 06:10:01;;;;;;;7.97;5.40;;;;;;;;;;5072478;28;20184;-73
2023/10/08 06:12:30;;;;;;;7.80;5.35;;;;;;;;;;5068033;28;20215;-73
2023/10/08 06:15:07;;;;;;;8.00;5.25;;;;;;;;;;5079529;28;20212;-72
2023/10/08 06:20:24;;;;;;;6.68;4.57;;;;;;;;;;5094768;28;20615;-72
2023/10/08 06:22:50;;;;;;;8.90;5.60;;;;;;;;;;5070117;28;20545;-73
2023/10/08 06:25:23;;;;;;;8.57;4.88;;;;;;;;;;5079548;28;20192;-73
2023/10/08 06:27:49;;;;;;;8.10;5.13;;;;;;;;;;5068564;28;20192;-73
2023/10/08 06:30:16;;;;;;;8.25;5.30;;;;;;;;;;5064726;28;20507;-73
2023/10/08 06:32:45;;;;;;;9.23;4.95;;;;;;;;;;5091333;28;20200;-73
2023/10/08 06:35:17;;;;;;;7.90;5.07;;;;;;;;;;5074990;28;20185;-73
2023/10/08 06:37:49;;;;;;;8.18;5.53;;;;;;;;;;5067808;28;20188;-73
2023/10/08 06:43:03;;;;;;;9.82;4.72;;;;;;;;;;5089010;28;20369;-73
2023/10/08 06:45:30;;;;;;;9.40;4.70;;;;;;;;;;5088707;28;20191;-73
2023/10/08 06:47:57;;;;;;;7.18;4.60;;;;;;;;;;5065728;28;20185;-73
2023/10/08 06:50:22;;;;;;;8.73;5.00;;;;;;;;;;5070265;28;20555;-73
2023/10/08 06:52:49;;;;;;;12.07;4.75;;;;;;;;;;5073156;28;20181;-73
2023/10/08 06:55:17;;;;;;;10.40;4.85;;;;;;;;;;5061454;28;20183;-73
2023/10/08 06:57:43;;;;;;;7.65;4.70;;;;;;;;;;5094724;28;20608;-73
2023/10/08 07:00:12;;;;;;;8.45;5.18;;;;;;;;;;5074511;28;20276;-73
2023/10/08 07:02:39;;;;;;;9.45;5.30;;;;;;;;;;5072266;28;20286;-71
2023/10/08 07:05:09;;;;;;;9.57;5.13;;;;;;;;;;5072891;28;20200;-71
2023/10/08 07:07:39;;;;;;;9.82;4.85;;;;;;;;;;5071621;28;20188;-73
2023/10/08 07:10:05;;;;;;;10.27;4.47;;;;;;;;;;5055223;28;20275;-71
2023/10/08 07:12:35;;;;;;;9.98;5.07;;;;;;;;;;5067065;28;20525;-72
2023/10/08 07:15:01;;;;;;;10.18;4.78;;;;;;;;;;5090738;28;20516;-72
2023/10/08 07:17:36;;;;;;;10.30;4.78;;;;;;;;;;5070781;28;20241;-72
2023/10/08 07:20:09;;;;;;;8.77;4.68;;;;;;;;;;5103347;28;20186;-72
2023/10/08 07:22:38;;;;;;;9.70;5.78;;;;;;;;;;5092186;28;20184;-72
2023/10/08 07:25:08;;;;;;;11.05;4.80;;;;;;;;;;5047352;28;20256;-72
2023/10/08 07:27:37;;;;;;;8.77;4.88;;;;;;;;;;5076592;28;20271;-73
2023/10/08 07:30:10;;;;;;;10.52;4.22;;;;;;;;;;5071064;28;20196;-73
2023/10/08 07:32:38;;;;;;;7.45;4.05;;;;;;;;;;5085487;28;20199;-73
2023/10/08 07:37:44;;;;;;;8.77;4.72;;;;;;;;;;5084464;28;20184;-73
2023/10/08 07:40:12;;;;;;;8.25;3.65;;;;;;;;;;5057786;28;20188;-73
2023/10/08 07:42:37;;;;;;;8.65;4.00;;;;;;;;;;5086171;28;20294;-73
2023/10/08 07:45:04;;;;;;;10.82;4.20;;;;;;;;;;5068731;28;20305;-73
2023/10/08 07:47:30;;;;;;;5.18;3.45;;;;;;;;;;5075172;28;20333;-73
2023/10/08 07:49:55;;;;;;;8.93;4.05;;;;;;;;;;5092109;28;20268;-74
2023/10/08 07:52:21;;;;;;;9.05;3.95;;;;;;;;;;5079436;28;20226;-74
2023/10/08 07:54:47;;;;;;;7.43;3.35;;;;;;;;;;5057832;28;20199;-74
2023/10/08 07:57:17;;;;;;;7.53;3.50;;;;;;;;;;5085422;28;20200;-74
2023/10/08 07:59:46;;;;;;;10.23;3.92;;;;;;;;;;5073118;28;20206;-73
2023/10/08 08:02:13;;;;;;;6.63;3.15;;;;;;;;;;5084516;28;20347;-73
2023/10/08 08:04:45;;;;;;;5.78;3.22;;;;;;;;;;5101001;28;20332;-73
2023/10/08 08:07:17;;;;;;;8.63;3.38;;;;;;;;;;5053156;28;20180;-74
2023/10/08 08:09:58;;;;;;;7.50;3.53;;;;;;;;;;5055903;28;20194;-73
2023/10/08 08:12:25;;;;;;;8.55;3.40;;;;;;;;;;5068112;28;20204;-73
2023/10/08 08:14:51;;;;;;;8.27;3.22;;;;;;;;;;5086173;28;20179;-73
2023/10/08 08:17:22;;;;;;;12.88;3.80;;;;;;;;;;5085679;28;20192;-74
2023/10/08 08:19:49;;;;;;;6.25;3.50;;;;;;;;;;5077200;28;20508;-74
2023/10/08 08:22:21;;;;;;;8.45;3.38;;;;;;;;;;5040947;28;20559;-73
2023/10/08 08:24:53;;;;;;;6.35;3.40;;;;;;;;;;5085789;28;20188;-74
2023/10/08 08:27:24;;;;;;;5.82;3.50;;;;;;;;;;5075541;28;20189;-73
2023/10/08 08:29:55;;;;;;;7.45;3.15;;;;;;;;;;5078269;28;20195;-74
2023/10/08 08:32:23;;;;;;;5.72;3.13;;;;;;;;;;5089723;28;20208;-74
2023/10/08 08:34:50;;;;;;;7.13;2.95;;;;;;;;;;5059046;28;20211;-74
2023/10/08 08:37:16;;;;;;;6.25;3.03;;;;;;;;;;5065831;28;20184;-74
2023/10/08 08:39:41;;;;;;;10.00;3.08;;;;;;;;;;5090056;28;20190;-73
2023/10/08 08:42:08;;;;;;;5.90;3.00;;;;;;;;;;5070137;28;20195;-73
2023/10/08 08:44:45;;;;;;;8.55;3.17;;;;;;;;;;5088107;28;20275;-73
2023/10/08 08:47:17;;;;;;;6.15;2.75;;;;;;;;;;5067901;28;20184;-73
2023/10/08 08:49:43;;;;;;;6.20;2.60;;;;;;;;;;5088265;28;20589;-74
2023/10/08 08:52:09;;;;;;;6.22;3.03;;;;;;;;;;5086863;28;20674;-74
2023/10/08 08:54:36;;;;;;;5.57;2.72;;;;;;;;;;5066895;28;20194;-74
2023/10/08 08:57:04;;;;;;;10.90;2.85;;;;;;;;;;5066869;28;20204;-75
2023/10/08 08:59:30;;;;;;;5.78;2.13;;;;;;;;;;5069618;28;20291;-75
2023/10/08 09:01:59;;;;;;;9.75;2.50;;;;;;;;;;5085442;28;20582;-75
2023/10/08 09:04:32;;;;;;;4.95;1.70;;;;;;;;;;5083507;28;20247;-75
2023/10/08 09:06:59;;;;;;;4.60;2.20;;;;;;;;;;5092911;28;20226;-75
2023/10/08 09:09:32;;;;;;;8.43;2.05;;;;;;;;;;5070674;28;20184;-74
2023/10/08 09:11:58;;;;;;;9.93;1.40;;;;;;;;;;5078703;28;20222;-74
2023/10/08 09:14:26;;;;;;;7.50;1.83;;;;;;;;;;5070358;28;20188;-75
2023/10/08 09:16:54;;;;;;;6.13;1.85;;;;;;;;;;5085336;28;20297;-74
2023/10/08 09:19:21;;;;;;;7.13;1.58;;;;;;;;;;5052641;28;20556;-75
2023/10/08 09:22:04;;;;;;;6.38;1.33;;;;;;;;;;5067994;28;20613;-73
2023/10/08 09:24:36;;;;;;;5.90;1.48;;;;;;;;;;5075082;28;20196;-74
2023/10/08 09:27:02;;;;;;;4.88;1.15;;;;;;;;;;5089424;28;20665;-74
2023/10/08 09:29:28;;;;;;;6.03;1.75;;;;;;;;;;5084934;28;20188;-75
2023/10/08 09:31:56;;;;;;;4.60;1.33;;;;;;;;;;5080514;28;20238;-74
2023/10/08 09:34:25;;;;;;;8.88;1.98;;;;;;;;;;5084412;28;20280;-75
2023/10/08 09:36:53;;;;;;;6.13;1.40;;;;;;;;;;5071413;28;20871;-75
2023/10/08 09:39:23;;;;;;;5.25;1.27;;;;;;;;;;5042464;28;20297;-75
2023/10/08 09:41:50;;;;;;;7.30;1.50;;;;;;;;;;5077548;28;20382;-75
2023/10/08 09:44:19;;;;;;;6.38;2.38;;;;;;;;;;5089819;28;20188;-75
2023/10/08 09:46:51;;;;;;;4.60;1.50;;;;;;;;;;5072864;28;20272;-75
2023/10/08 09:49:19;;;;;;;5.82;1.30;;;;;;;;;;5065395;28;20317;-75
2023/10/08 09:51:45;;;;;;;4.57;1.50;;;;;;;;;;5076011;28;20212;-75
2023/10/08 09:54:18;;;;;;;8.68;1.88;;;;;;;;;;5062264;28;20639;-74
2023/10/08 09:56:44;;;;;;;6.82;1.90;;;;;;;;;;5081660;28;20192;-74
2023/10/08 09:59:10;;;;;;;6.53;1.50;;;;;;;;;;5058795;28;20694;-74
2023/10/08 10:01:38;;;;;;;6.22;1.55;;;;;;;;;;5089447;28;20279;-75
2023/10/08 10:04:11;;;;;;;5.10;1.35;;;;;;;;;;5088554;28;20681;-75
2023/10/08 10:06:37;;;;;;;4.90;1.58;;;;;;;;;;5071392;28;20200;-75
2023/10/08 10:09:08;;;;;;;6.15;1.70;;;;;;;;;;5070116;28;20188;-75
2023/10/08 10:11:33;;;;;;;6.50;1.77;;;;;;;;;;5092164;28;20245;-75
2023/10/08 10:14:00;;;;;;;5.15;1.88;;;;;;;;;;5066857;28;20189;-75
2023/10/08 10:16:26;;;;;;;5.88;1.45;;;;;;;;;;5073368;28;20245;-75
2023/10/08 10:18:57;;;;;;;7.15;1.45;;;;;;;;;;5076413;28;20188;-74
2023/10/08 10:21:31;;;;;;;5.65;1.45;;;;;;;;;;5079714;28;20714;-75
2023/10/08 10:23:57;;;;;;;12.85;1.70;;;;;;;;;;5092868;28;20202;-74
2023/10/08 10:26:25;;;;;;;4.63;1.73;;;;;;;;;;5086391;28;20197;-75
2023/10/08 10:29:09;;;;;;;8.05;1.30;;;;;;;;;;5056887;28;20261;-74
2023/10/08 10:31:34;;;;;;;12.10;3.85;;;;;;;;;;5072835;28;20299;-75
2023/10/08 10:34:12;;;;;;;6.85;2.15;;;;;;;;;;5068227;28;20246;-74
2023/10/08 10:36:40;;;;;;;6.32;1.45;;;;;;;;;;5077014;28;20180;-75
2023/10/08 10:41:51;;;;;;;8.68;1.25;;;;;;;;;;5089410;28;20263;-75
2023/10/08 10:44:16;;;;;;;8.25;1.65;;;;;;;;;;5070926;28;20188;-75
2023/10/08 10:46:52;;;;;;;5.70;1.80;;;;;;;;;;5086449;28;20662;-75
2023/10/08 10:49:21;;;;;;;8.85;1.33;;;;;;;;;;5056549;28;20184;-75
2023/10/08 10:52:17;;;;;;;5.28;1.20;;;;;;;;;;5077947;28;20293;-74
2023/10/08 10:54:39;;;;;;;8.50;1.33;;;;;;;;;;5070066;28;20227;-74
2023/10/08 10:57:09;;;;;;;6.35;1.13;;;;;;;;;;5077655;28;20699;-74
2023/10/08 10:59:37;;;;;;;6.18;1.25;;;;;;;;;;5074004;28;20175;-75
2023/10/08 11:02:21;;;;;;;4.53;1.20;;;;;;;;;;5085150;28;20608;-74
2023/10/08 11:04:47;;;;;;;4.65;1.35;;;;;;;;;;5091807;28;20235;-74
2023/10/08 11:07:23;;;;;;;8.05;1.48;;;;;;;;;;5073742;28;20290;-74
2023/10/08 11:09:52;;;;;;;5.53;1.23;;;;;;;;;;5091952;28;20183;-74
2023/10/08 11:12:32;;;;;;;4.45;1.20;;;;;;;;;;5086620;28;20280;-74
2023/10/08 11:14:58;;;;;;;6.50;1.05;;;;;;;;;;5085428;28;20218;-74
2023/10/08 11:17:25;;;;;;;6.72;1.35;;;;;;;;;;5082072;28;20601;-74
2023/10/08 11:19:51;;;;;;;5.30;1.45;;;;;;;;;;5091860;28;20218;-74
2023/10/08 11:22:17;;;;;;;5.00;1.10;;;;;;;;;;5065094;28;20209;-74
2023/10/08 11:24:53;;;;;;;4.35;1.20;;;;;;;;;;5089307;28;20191;-74
2023/10/08 11:27:28;;;;;;;8.95;2.03;;;;;;;;;;5086321;28;20207;-73
2023/10/08 11:30:00;;;;;;;7.35;1.58;;;;;;;;;;5075205;28;20312;-74
2023/10/08 11:32:26;;;;;;;7.32;2.00;;;;;;;;;;5068485;28;20222;-73
2023/10/08 11:35:15;;;;;;;3.50;1.20;;;;;;;;;;5102218;28;20534;-74
2023/10/08 11:37:50;;;;;;;6.28;1.40;;;;;;;;;;5072501;28;20195;-74
2023/10/08 11:40:28;;;;;;;4.82;1.17;;;;;;;;;;5095674;28;20183;-73
2023/10/08 11:42:59;;;;;;;6.82;1.48;;;;;;;;;;5078043;28;20214;-74
2023/10/08 11:45:30;;;;;;;5.40;1.30;;;;;;;;;;5088816;28;20218;-72
2023/10/08 11:47:55;;;;;;;6.15;1.17;;;;;;;;;;5076897;28;20189;-73
2023/10/08 11:50:30;;;;;;;6.03;1.25;;;;;;;;;;5078706;28;20176;-74
2023/10/08 11:53:05;;;;;;;5.75;1.15;;;;;;;;;;5055669;28;20275;-73
2023/10/08 11:55:37;;;;;;;5.43;1.20;;;;;;;;;;5074557;28;20180;-73
2023/10/08 11:58:09;;;;;;;5.85;1.02;;;;;;;;;;5053422;28;20624;-74
2023/10/08 12:00:45;;;;;;;4.70;1.20;;;;;;;;;;5101233;28;20180;-74
2023/10/08 12:03:11;;;;;;;4.32;1.20;;;;;;;;;;5086799;28;20219;-71
2023/10/08 12:05:38;;;;;;;4.82;1.05;;;;;;;;;;5085067;28;20180;-73
2023/10/08 12:08:08;;;;;;;8.60;1.23;;;;;;;;;;5083492;28;20184;-74
2023/10/08 12:10:34;;;;;;;4.88;1.45;;;;;;;;;;5063514;28;20650;-74
2023/10/08 12:13:00;;;;;;;7.22;1.95;;;;;;;;;;5089054;28;20192;-75
2023/10/08 12:15:38;;;;;;;5.30;1.02;;;;;;;;;;5072488;28;20275;-74
2023/10/08 12:19:15;;;;;;;5.53;1.40;;;;;;;;;;5093740;28;20192;-74
2023/10/08 12:20:59;;;;;;;5.57;1.08;;;;;;;;;;5074458;28;20253;-74
2023/10/08 12:23:29;;;;;;;4.28;1.00;;;;;;;;;;5073352;28;20209;-75
2023/10/08 12:25:57;;;;;;;6.85;1.00;;;;;;;;;;5062957;28;20237;-74
2023/10/08 12:28:23;;;;;;;4.75;1.13;;;;;;;;;;5070525;28;20257;-75
2023/10/08 12:30:52;;;;;;;6.15;1.20;;;;;;;;;;5067238;28;20515;-73
2023/10/08 12:33:19;;;;;;;4.38;1.02;;;;;;;;;;5083061;28;20314;-73
2023/10/08 12:35:46;;;;;;;3.97;0.77;;;;;;;;;;5070343;28;20197;-74
2023/10/08 12:38:12;;;;;;;3.03;1.20;;;;;;;;;;5072915;28;20211;-74
2023/10/08 12:40:53;;;;;;;6.95;1.20;;;;;;;;;;5064455;28;20189;-74
2023/10/08 12:43:26;;;;;;;5.70;1.50;;;;;;;;;;5060547;28;20188;-74
2023/10/08 12:45:53;;;;;;;4.95;1.30;;;;;;;;;;5083994;28;20323;-74
2023/10/08 12:48:22;;;;;;;4.45;1.23;;;;;;;;;;5086922;28;20292;-74
2023/10/08 12:50:53;;;;;;;7.18;1.42;;;;;;;;;;5073711;28;20208;-72
2023/10/08 12:53:38;;;;;;;4.50;1.67;;;;;;;;;;5071183;28;20196;-73
2023/10/08 12:56:14;;;;;;;4.63;1.80;;;;;;;;;;5082597;28;20324;-75
2023/10/08 12:58:43;;;;;;;5.95;1.92;;;;;;;;;;5071242;28;20191;-74
2023/10/08 13:01:09;;;;;;;5.30;1.75;;;;;;;;;;5089220;28;20214;-74
2023/10/08 13:03:41;;;;;;;4.55;1.77;;;;;;;;;;5092422;28;20530;-71
2023/10/08 13:06:31;;;;;;;4.78;1.70;;;;;;;;;;5073190;28;20721;-73
2023/10/08 13:08:58;;;;;;;5.65;1.90;;;;;;;;;;5075679;28;20264;-72
2023/10/08 13:11:25;;;;;;;5.10;1.90;;;;;;;;;;5073228;28;20280;-73
2023/10/08 13:13:52;;;;;;;7.32;1.95;;;;;;;;;;5076011;28;20658;-74
2023/10/08 13:16:21;;;;;;;4.13;1.60;;;;;;;;;;5088286;28;20522;-74
2023/10/08 13:18:47;;;;;;;9.65;2.08;;;;;;;;;;5054167;28;20276;-74
2023/10/08 13:21:12;;;;;;;8.18;1.98;;;;;;;;;;5058022;28;20184;-74
2023/10/08 13:23:38;;;;;;;5.65;1.80;;;;;;;;;;5061090;28;20578;-74
2023/10/08 13:26:06;;;;;;;7.80;1.90;;;;;;;;;;5074225;28;20215;-76
2023/10/08 13:28:33;;;;;;;7.93;1.88;;;;;;;;;;5066998;28;20506;-73
2023/10/08 13:31:00;;;;;;;5.88;1.95;;;;;;;;;;5072886;28;20275;-74
2023/10/08 13:33:26;;;;;;;6.82;1.90;;;;;;;;;;5087348;28;20198;-74
2023/10/08 13:35:51;;;;;;;7.13;1.63;;;;;;;;;;5079203;28;20191;-74
2023/10/08 13:38:19;;;;;;;4.18;1.50;;;;;;;;;;5084297;28;20270;-71
2023/10/08 13:41:02;;;;;;;9.57;1.70;;;;;;;;;;5080830;28;20226;-73
2023/10/08 13:43:33;;;;;;;4.85;1.42;;;;;;;;;;5087083;28;20187;-74
2023/10/08 13:46:12;;;;;;;4.85;1.80;;;;;;;;;;5102175;28;20706;-75
2023/10/08 13:48:39;;;;;;;7.57;1.63;;;;;;;;;;5082387;28;20214;-75
2023/10/08 13:51:13;;;;;;;5.97;1.67;;;;;;;;;;5075910;28;20208;-75
2023/10/08 13:53:40;;;;;;;5.72;1.85;;;;;;;;;;5072204;28;20180;-75
2023/10/08 13:56:05;;;;;;;4.15;1.50;;;;;;;;;;5088268;28;20532;-75
2023/10/08 13:58:34;;;;;;;6.40;1.70;;;;;;;;;;5059084;28;20193;-75
2023/10/08 14:01:00;;;;;;;4.70;1.15;;;;;;;;;;5089081;28;20224;-75
2023/10/08 14:03:28;;;;;;;5.28;1.55;;;;;;;;;;5087510;28;20307;-75
2023/10/08 14:05:54;;;;;;;4.97;1.38;;;;;;;;;;5068748;28;20195;-75
2023/10/08 14:08:22;;;;;;;3.85;1.30;;;;;;;;;;5063297;28;20573;-74
2023/10/08 14:10:48;;;;;;;4.43;1.40;;;;;;;;;;5070985;28;20200;-74
2023/10/08 14:13:19;;;;;;;3.47;1.58;;;;;;;;;;5068773;28;20192;-74
2023/10/08 14:15:48;;;;;;;3.97;1.70;;;;;;;;;;5090277;28;20188;-73
2023/10/08 14:18:17;;;;;;;6.93;1.80;;;;;;;;;;5073085;28;20192;-74
2023/10/08 14:20:46;;;;;;;7.60;1.80;;;;;;;;;;5077948;28;20181;-74
2023/10/08 14:23:12;;;;;;;3.25;1.50;;;;;;;;;;5087996;28;20191;-74
2023/10/08 14:25:44;;;;;;;5.28;1.73;;;;;;;;;;5072737;28;20644;-74
2023/10/08 14:28:21;;;;;;;4.40;1.42;;;;;;;;;;5082876;28;20284;-74
2023/10/08 14:30:47;;;;;;;5.90;1.40;;;;;;;;;;5094720;28;20332;-74
2023/10/08 14:33:23;;;;;;;6.22;1.40;;;;;;;;;;5057507;28;20271;-74
2023/10/08 14:44:03;;;;;;;5.38;1.90;;;;;;;;;;5070010;28;20214;-75
2023/10/08 14:46:32;;;;;;;7.05;1.60;;;;;;;;;;5091126;28;20184;-75
2023/10/08 14:48:58;;;;;;;9.18;1.83;;;;;;;;;;5084965;28;20283;-75
2023/10/08 14:51:24;;;;;;;3.30;1.85;;;;;;;;;;5083754;28;20291;-75
2023/10/08 14:53:49;;;;;;;4.95;1.70;;;;;;;;;;5077741;28;20179;-75
2023/10/08 14:56:15;;;;;;;3.20;1.65;;;;;;;;;;5083686;28;20284;-75
2023/10/08 14:58:41;;;;;;;4.25;1.60;;;;;;;;;;5088634;28;20203;-75
2023/10/08 15:01:06;;;;;;;6.00;1.90;;;;;;;;;;5088559;28;20205;-75
2023/10/08 15:03:32;;;;;;;5.00;1.65;;;;;;;;;;5059577;28;20224;-75
2023/10/08 15:05:58;;;;;;;6.55;2.03;;;;;;;;;;5057404;28;20551;-75
2023/10/08 15:08:24;;;;;;;7.60;1.70;;;;;;;;;;5067596;28;20632;-75
2023/10/08 15:10:49;;;;;;;2.33;1.48;;;;;;;;;;5081309;28;20199;-74
2023/10/08 15:13:15;;;;;;;6.88;1.90;;;;;;;;;;5072619;28;20197;-75
2023/10/08 15:15:42;;;;;;;3.50;1.63;;;;;;;;;;5073334;28;20623;-74
2023/10/08 15:18:11;;;;;;;5.30;1.48;;;;;;;;;;5071184;28;20280;-74
2023/10/08 15:20:37;;;;;;;3.88;1.50;;;;;;;;;;5070279;28;20197;-75
2023/10/08 15:23:04;;;;;;;5.80;2.35;;;;;;;;;;5074816;28;20188;-74
2023/10/08 15:25:30;;;;;;;2.80;1.23;;;;;;;;;;5060302;28;20544;-74
2023/10/08 15:27:55;;;;;;;3.75;1.48;;;;;;;;;;5080195;28;20207;-74
2023/10/08 15:30:21;;;;;;;5.13;1.55;;;;;;;;;;5070352;28;20222;-75
2023/10/08 15:32:48;;;;;;;6.07;1.33;;;;;;;;;;5052644;28;20250;-74
2023/10/08 15:35:23;;;;;;;5.15;1.67;;;;;;;;;;5066722;28;20186;-75
2023/10/08 15:37:48;;;;;;;6.05;2.08;;;;;;;;;;5063474;28;20421;-74